WSSS/SIN METAR and TAF weather

Enter ICAO airport designator
Station Type Date Time Source
WSSS METAR 2019/10/23 12:30 UTC NOAA

WSSS 231230Z VRB02KT 9999 FEW018 FEW020CB SCT060 BKN300 27/23 Q1009 NOSIG


Station Type Date Time Source
WSSS Decoded METAR 2019/10/23 12:30 UTC NOAA

Singapore / Changi Airport, Singapore (WSSS) 01-22N 103-59E 16M
Oct 23, 2019 - 08:30 AM EDT / 2019.10.23 1230 UTC
Wind: Variable at 2 MPH (2 KT):0
Visibility: greater than 7 mile(s):0
Sky conditions: mostly cloudy
Weather: Cumulonimbus clouds observed
Temperature: 80 F (27 C)
Dew Point: 73 F (23 C)
Relative Humidity: 78%
Pressure (altimeter): 29.80 in. Hg (1009 hPa)
ob: WSSS 231230Z VRB02KT 9999 FEW018 FEW020CB SCT060 BKN300 27/23 Q1009 NOSIG
cycle: 12

Station Type Date Time Source
WSSS TAF 2019/10/23 12:13 UTC NOAA

TAF WSSS 231100Z 2312/2418 14007KT 9999 FEW015 SCT020
TEMPO 2405/2409 3000 TSRA FEW012CB BKN015

Example: see airport list